PWSweather.com
Personal Weather Stations
Station Observations
133525
French Quarters West Seneca , West Seneca, NY 14224

French Quarters West Seneca West Seneca, NY 14224

Lat: 42.850058, Lon: -78.799754

Elevation: 603

Station Type: Davis Vantage Vue pro2

http://westsenecaweather.com/

Latest ConditionsUpdated 10:20:01 AM EDT Monday, Sep 24, 2018
Currently Today's Max Today's Min Today's Average
Temperature 60.4°F15.8°C 60.4°F15.8°C 50.9°F10.5°C 53.1°F11.7°C
Dew Point 52.8°F11.6°C 52.8°F11.6°C 46.9°F8.3°C 49.3°F9.6°C
Winds 4.6 mph SW7.4 kmh SW 8.1 mph -13.0 kmh - - 3.4 mph 5.5 kmh
Wind Gusts 5.8 mph9.3 kmh 12.7 mph20.4 kmh - -
Humidity 76% 93% 76% 87%
Pressure 30.33 in1027.1 mb 30.35 in1027.8 mb 30.28 in1025.4 mb -
Hour Temp Dew Point Humidity Winds Wind Gusts Pressure Precip Precip Rate Daily Precip Total
10:20 AM 60.4°F15.8°C 52.8°F11.6°C 76% 4.6 mph SW7.4 kmh SW 5.8 mph9.3 kmh 30.33 in1027.1 mb - 0.00 in0.0 mm 0.00 in0.0 mm
10:15 AM 60.1°F15.6°C 52.5°F11.4°C 76% 5.8 mph SSW9.3 kmh SSW 8.1 mph13.0 kmh 30.34 in1027.4 mb - 0.00 in0.0 mm 0.00 in0.0 mm
10:10 AM 59.5°F15.3°C 52.7°F11.5°C 78% 3.5 mph SW5.6 kmh SW 9.2 mph14.8 kmh 30.34 in1027.4 mb - 0.00 in0.0 mm 0.00 in0.0 mm
10:00 AM 58.6°F14.8°C 52.1°F11.2°C 79% 4.6 mph SSW7.4 kmh SSW 9.2 mph14.8 kmh 30.34 in1027.4 mb - 0.00 in0.0 mm 0.00 in0.0 mm
09:55 AM 58.3°F14.6°C 52.1°F11.2°C 80% 3.5 mph S5.6 kmh S 8.1 mph13.0 kmh 30.34 in1027.4 mb - 0.00 in0.0 mm 0.00 in0.0 mm
09:50 AM 57.9°F14.4°C 51.7°F10.9°C 80% 3.5 mph S5.6 kmh S 4.6 mph7.4 kmh 30.34 in1027.4 mb - 0.00 in0.0 mm 0.00 in0.0 mm
09:45 AM 57.6°F14.2°C 51.8°F11.0°C 81% 4.6 mph SW7.4 kmh SW 5.8 mph9.3 kmh 30.34 in1027.4 mb - 0.00 in0.0 mm 0.00 in0.0 mm
09:40 AM 57.3°F14.1°C 51.5°F10.8°C 81% 4.6 mph SW7.4 kmh SW 4.6 mph7.4 kmh 30.34 in1027.4 mb - 0.00 in0.0 mm 0.00 in0.0 mm
09:35 AM 57.3°F14.1°C 51.5°F10.8°C 81% 5.8 mph SW9.3 kmh SW 9.2 mph14.8 kmh 30.34 in1027.4 mb - 0.00 in0.0 mm 0.00 in0.0 mm
09:30 AM 56.7°F13.7°C 52.0°F11.1°C 84% 2.3 mph SSW3.7 kmh SSW 3.5 mph5.6 kmh 30.34 in1027.4 mb - 0.00 in0.0 mm 0.00 in0.0 mm
09:25 AM 56.1°F13.4°C 51.6°F10.9°C 85% 3.5 mph SW5.6 kmh SW 5.8 mph9.3 kmh 30.34 in1027.4 mb - 0.00 in0.0 mm 0.00 in0.0 mm
09:20 AM 55.5°F13.1°C 51.1°F10.6°C 85% 5.8 mph SSW9.3 kmh SSW 6.9 mph11.1 kmh 30.34 in1027.4 mb - 0.00 in0.0 mm 0.00 in0.0 mm
09:15 AM 55.0°F12.8°C 50.9°F10.5°C 86% 5.8 mph SSW9.3 kmh SSW 8.1 mph13.0 kmh 30.34 in1027.4 mb - 0.00 in0.0 mm 0.00 in0.0 mm
09:10 AM 54.6°F12.6°C 50.5°F10.3°C 86% 5.8 mph SW9.3 kmh SW 8.1 mph13.0 kmh 30.34 in1027.4 mb - 0.00 in0.0 mm 0.00 in0.0 mm
09:00 AM 54.2°F12.3°C 50.5°F10.3°C 87% 8.1 mph SSW13.0 kmh SSW 11.5 mph18.5 kmh 30.34 in1027.4 mb - 0.00 in0.0 mm 0.00 in0.0 mm
08:55 AM 54.1°F12.3°C 50.6°F10.3°C 88% 5.8 mph SW9.3 kmh SW 9.2 mph14.8 kmh 30.34 in1027.4 mb - 0.00 in0.0 mm 0.00 in0.0 mm
08:50 AM 54.0°F12.2°C 50.8°F10.4°C 89% 4.6 mph SW7.4 kmh SW 4.6 mph7.4 kmh 30.34 in1027.4 mb - 0.00 in0.0 mm 0.00 in0.0 mm
08:45 AM 53.8°F12.1°C 50.6°F10.3°C 89% 3.5 mph SW5.6 kmh SW 9.2 mph14.8 kmh 30.34 in1027.4 mb - 0.00 in0.0 mm 0.00 in0.0 mm
08:40 AM 53.6°F12.0°C 50.4°F10.2°C 89% 4.6 mph SW7.4 kmh SW 8.1 mph13.0 kmh 30.35 in1027.8 mb - 0.00 in0.0 mm 0.00 in0.0 mm
08:35 AM 53.4°F11.9°C 50.5°F10.3°C 90% 2.3 mph SSW3.7 kmh SSW 3.5 mph5.6 kmh 30.35 in1027.8 mb - 0.00 in0.0 mm 0.00 in0.0 mm
08:30 AM 53.2°F11.8°C 50.3°F10.2°C 90% 2.3 mph WSW3.7 kmh WSW 3.5 mph5.6 kmh 30.35 in1027.8 mb - 0.00 in0.0 mm 0.00 in0.0 mm
08:25 AM 53.0°F11.7°C 50.4°F10.2°C 91% 2.3 mph SW3.7 kmh SW 3.5 mph5.6 kmh 30.35 in1027.8 mb - 0.00 in0.0 mm 0.00 in0.0 mm
08:20 AM 52.9°F11.6°C 50.3°F10.2°C 91% 4.6 mph SSW7.4 kmh SSW 5.8 mph9.3 kmh 30.35 in1027.8 mb - 0.00 in0.0 mm 0.00 in0.0 mm
08:15 AM 52.8°F11.6°C 50.2°F10.1°C 91% 5.8 mph SW9.3 kmh SW 11.5 mph18.5 kmh 30.35 in1027.8 mb - 0.00 in0.0 mm 0.00 in0.0 mm
08:10 AM 52.8°F11.6°C 50.2°F10.1°C 91% 4.6 mph SW7.4 kmh SW 9.2 mph14.8 kmh 30.35 in1027.8 mb - 0.00 in0.0 mm 0.00 in0.0 mm
08:00 AM 52.7°F11.5°C 50.1°F10.1°C 91% 6.9 mph WSW11.1 kmh WSW 12.7 mph20.4 kmh 30.35 in1027.8 mb - 0.00 in0.0 mm 0.00 in0.0 mm
07:55 AM 52.6°F11.4°C 50.0°F10.0°C 91% 5.8 mph SSW9.3 kmh SSW 6.9 mph11.1 kmh 30.34 in1027.4 mb - 0.00 in0.0 mm 0.00 in0.0 mm
07:50 AM 52.6°F11.4°C 50.0°F10.0°C 91% 4.6 mph SSW7.4 kmh SSW 9.2 mph14.8 kmh 30.34 in1027.4 mb - 0.00 in0.0 mm 0.00 in0.0 mm
07:45 AM 52.6°F11.4°C 50.0°F10.0°C 91% 5.8 mph SSW9.3 kmh SSW 6.9 mph11.1 kmh 30.34 in1027.4 mb - 0.00 in0.0 mm 0.00 in0.0 mm
07:40 AM 52.5°F11.4°C 50.2°F10.1°C 92% 4.6 mph SSW7.4 kmh SSW 6.9 mph11.1 kmh 30.34 in1027.4 mb - 0.00 in0.0 mm 0.00 in0.0 mm
07:35 AM 52.4°F11.3°C 50.1°F10.1°C 92% 4.6 mph SSW7.4 kmh SSW 5.8 mph9.3 kmh 30.34 in1027.4 mb - 0.00 in0.0 mm 0.00 in0.0 mm
07:30 AM 52.3°F11.3°C 50.0°F10.0°C 92% 3.5 mph SSW5.6 kmh SSW 5.8 mph9.3 kmh 30.34 in1027.4 mb - 0.00 in0.0 mm 0.00 in0.0 mm
07:25 AM 52.1°F11.2°C 49.8°F9.9°C 92% 3.5 mph SSW5.6 kmh SSW 4.6 mph7.4 kmh 30.34 in1027.4 mb - 0.00 in0.0 mm 0.00 in0.0 mm
07:20 AM 52.0°F11.1°C 49.7°F9.8°C 92% 5.8 mph S9.3 kmh S 5.8 mph9.3 kmh 30.34 in1027.4 mb - 0.00 in0.0 mm 0.00 in0.0 mm
07:15 AM 51.8°F11.0°C 49.8°F9.9°C 93% 3.5 mph SW5.6 kmh SW 5.8 mph9.3 kmh 30.34 in1027.4 mb - 0.00 in0.0 mm 0.00 in0.0 mm
07:10 AM 51.6°F10.9°C 49.6°F9.8°C 93% 3.5 mph SW5.6 kmh SW 8.1 mph13.0 kmh 30.33 in1027.1 mb - 0.00 in0.0 mm 0.00 in0.0 mm
07:00 AM 51.4°F10.8°C 49.4°F9.7°C 93% 3.5 mph S5.6 kmh S 8.1 mph13.0 kmh 30.33 in1027.1 mb - 0.00 in0.0 mm 0.00 in0.0 mm
06:55 AM 51.3°F10.7°C 49.3°F9.6°C 93% 4.6 mph SW7.4 kmh SW 8.1 mph13.0 kmh 30.33 in1027.1 mb - 0.00 in0.0 mm 0.00 in0.0 mm
06:50 AM 51.1°F10.6°C 49.2°F9.6°C 93% 5.8 mph SW9.3 kmh SW 9.2 mph14.8 kmh 30.33 in1027.1 mb - 0.00 in0.0 mm 0.00 in0.0 mm
06:45 AM 51.1°F10.6°C 48.8°F9.3°C 92% 1.2 mph SW1.9 kmh SW 3.5 mph5.6 kmh 30.33 in1027.1 mb - 0.00 in0.0 mm 0.00 in0.0 mm
06:40 AM 51.0°F10.6°C 48.8°F9.3°C 92% 3.5 mph S5.6 kmh S 4.6 mph7.4 kmh 30.33 in1027.1 mb - 0.00 in0.0 mm 0.00 in0.0 mm
06:35 AM 51.0°F10.6°C 48.8°F9.3°C 92% 2.3 mph S3.7 kmh S 3.5 mph5.6 kmh 30.32 in1026.8 mb - 0.00 in0.0 mm 0.00 in0.0 mm
06:30 AM 51.0°F10.6°C 48.8°F9.3°C 92% 3.5 mph S5.6 kmh S 6.9 mph11.1 kmh 30.32 in1026.8 mb - 0.00 in0.0 mm 0.00 in0.0 mm
06:25 AM 51.0°F10.6°C 48.8°F9.3°C 92% 3.5 mph S5.6 kmh S 3.5 mph5.6 kmh 30.32 in1026.8 mb - 0.00 in0.0 mm 0.00 in0.0 mm
06:15 AM 50.9°F10.5°C 48.7°F9.3°C 92% 4.6 mph SSW7.4 kmh SSW 6.9 mph11.1 kmh 30.32 in1026.8 mb - 0.00 in0.0 mm 0.00 in0.0 mm
06:10 AM 50.9°F10.5°C 48.7°F9.3°C 92% 3.5 mph SSW5.6 kmh SSW 5.8 mph9.3 kmh 30.32 in1026.8 mb - 0.00 in0.0 mm 0.00 in0.0 mm
06:00 AM 51.0°F10.6°C 48.4°F9.1°C 91% 3.5 mph SSW5.6 kmh SSW 6.9 mph11.1 kmh 30.31 in1026.4 mb - 0.00 in0.0 mm 0.00 in0.0 mm
05:55 AM 51.0°F10.6°C 48.5°F9.2°C 91% 3.5 mph S5.6 kmh S 3.5 mph5.6 kmh 30.31 in1026.4 mb - 0.00 in0.0 mm 0.00 in0.0 mm
05:50 AM 51.0°F10.6°C 48.5°F9.2°C 91% 3.5 mph S5.6 kmh S 4.6 mph7.4 kmh 30.31 in1026.4 mb - 0.00 in0.0 mm 0.00 in0.0 mm
05:45 AM 51.0°F10.6°C 48.5°F9.2°C 91% 4.6 mph SSW7.4 kmh SSW 4.6 mph7.4 kmh 30.31 in1026.4 mb - 0.00 in0.0 mm 0.00 in0.0 mm
05:40 AM 51.0°F10.6°C 48.5°F9.2°C 91% 2.3 mph SSW3.7 kmh SSW 3.5 mph5.6 kmh 30.31 in1026.4 mb - 0.00 in0.0 mm 0.00 in0.0 mm
05:35 AM 51.1°F10.6°C 48.3°F9.1°C 90% 4.6 mph SSW7.4 kmh SSW 4.6 mph7.4 kmh 30.31 in1026.4 mb - 0.00 in0.0 mm 0.00 in0.0 mm
05:30 AM 51.1°F10.6°C 48.3°F9.1°C 90% 2.3 mph S3.7 kmh S 3.5 mph5.6 kmh 30.31 in1026.4 mb - 0.00 in0.0 mm 0.00 in0.0 mm
05:25 AM 51.2°F10.7°C 48.4°F9.1°C 90% 3.5 mph SSW5.6 kmh SSW 4.6 mph7.4 kmh 30.31 in1026.4 mb - 0.00 in0.0 mm 0.00 in0.0 mm
05:20 AM 51.3°F10.7°C 48.2°F9.0°C 89% 4.6 mph SSW7.4 kmh SSW 6.9 mph11.1 kmh 30.31 in1026.4 mb - 0.00 in0.0 mm 0.00 in0.0 mm
05:15 AM 51.3°F10.7°C 48.2°F9.0°C 89% 4.6 mph SSW7.4 kmh SSW 9.2 mph14.8 kmh 30.30 in1026.1 mb - 0.00 in0.0 mm 0.00 in0.0 mm
05:10 AM 51.3°F10.7°C 48.2°F9.0°C 89% 3.5 mph SSW5.6 kmh SSW 8.1 mph13.0 kmh 30.30 in1026.1 mb - 0.00 in0.0 mm 0.00 in0.0 mm
05:00 AM 51.4°F10.8°C 48.0°F8.9°C 88% 3.5 mph SSW5.6 kmh SSW 6.9 mph11.1 kmh 30.31 in1026.4 mb - 0.00 in0.0 mm 0.00 in0.0 mm
04:55 AM 51.5°F10.8°C 48.0°F8.9°C 88% 2.3 mph SW3.7 kmh SW 8.1 mph13.0 kmh 30.31 in1026.4 mb - 0.00 in0.0 mm 0.00 in0.0 mm
04:50 AM 51.5°F10.8°C 47.8°F8.8°C 87% 2.3 mph SSW3.7 kmh SSW 4.6 mph7.4 kmh 30.31 in1026.4 mb - 0.00 in0.0 mm 0.00 in0.0 mm
04:45 AM 51.6°F10.9°C 47.9°F8.8°C 87% 4.6 mph S7.4 kmh S 8.1 mph13.0 kmh 30.31 in1026.4 mb - 0.00 in0.0 mm 0.00 in0.0 mm
04:40 AM 51.7°F10.9°C 47.6°F8.7°C 86% 3.5 mph SW5.6 kmh SW 5.8 mph9.3 kmh 30.30 in1026.1 mb - 0.00 in0.0 mm 0.00 in0.0 mm
04:35 AM 51.8°F11.0°C 47.4°F8.6°C 85% 3.5 mph SW5.6 kmh SW 5.8 mph9.3 kmh 30.30 in1026.1 mb - 0.00 in0.0 mm 0.00 in0.0 mm
04:30 AM 51.9°F11.1°C 47.5°F8.6°C 85% 3.5 mph SSW5.6 kmh SSW 6.9 mph11.1 kmh 30.30 in1026.1 mb - 0.00 in0.0 mm 0.00 in0.0 mm
04:25 AM 52.1°F11.2°C 47.7°F8.7°C 85% 3.5 mph SSW5.6 kmh SSW 5.8 mph9.3 kmh 30.30 in1026.1 mb - 0.00 in0.0 mm 0.00 in0.0 mm
04:20 AM 52.1°F11.2°C 47.4°F8.6°C 84% 3.5 mph SW5.6 kmh SW 5.8 mph9.3 kmh 30.30 in1026.1 mb - 0.00 in0.0 mm 0.00 in0.0 mm
04:15 AM 52.2°F11.2°C 47.5°F8.6°C 84% 4.6 mph SW7.4 kmh SW 4.6 mph7.4 kmh 30.30 in1026.1 mb - 0.00 in0.0 mm 0.00 in0.0 mm
04:10 AM 52.2°F11.2°C 47.5°F8.6°C 84% 3.5 mph SW5.6 kmh SW 5.8 mph9.3 kmh 30.30 in1026.1 mb - 0.00 in0.0 mm 0.00 in0.0 mm
04:00 AM 52.0°F11.1°C 47.3°F8.5°C 84% 4.6 mph SSW7.4 kmh SSW 5.8 mph9.3 kmh 30.30 in1026.1 mb - 0.00 in0.0 mm 0.00 in0.0 mm
03:55 AM 51.8°F11.0°C 47.1°F8.4°C 84% 4.6 mph S7.4 kmh S 5.8 mph9.3 kmh 30.30 in1026.1 mb - 0.00 in0.0 mm 0.00 in0.0 mm
03:50 AM 51.6°F10.9°C 46.9°F8.3°C 84% 3.5 mph SSW5.6 kmh SSW 6.9 mph11.1 kmh 30.30 in1026.1 mb - 0.00 in0.0 mm 0.00 in0.0 mm
03:45 AM 51.5°F10.8°C 47.1°F8.4°C 85% 3.5 mph SSW5.6 kmh SSW 5.8 mph9.3 kmh 30.30 in1026.1 mb - 0.00 in0.0 mm 0.00 in0.0 mm
03:40 AM 51.3°F10.7°C 47.3°F8.5°C 86% 3.5 mph SSW5.6 kmh SSW 5.8 mph9.3 kmh 30.30 in1026.1 mb - 0.00 in0.0 mm 0.00 in0.0 mm
03:35 AM 51.4°F10.8°C 47.4°F8.6°C 86% 2.3 mph SSW3.7 kmh SSW 2.3 mph3.7 kmh 30.30 in1026.1 mb - 0.00 in0.0 mm 0.00 in0.0 mm
03:30 AM 51.5°F10.8°C 47.5°F8.6°C 86% 2.3 mph S3.7 kmh S 3.5 mph5.6 kmh 30.30 in1026.1 mb - 0.00 in0.0 mm 0.00 in0.0 mm
03:25 AM 51.6°F10.9°C 47.5°F8.6°C 86% 1.2 mph SSW1.9 kmh SSW 3.5 mph5.6 kmh 30.30 in1026.1 mb - 0.00 in0.0 mm 0.00 in0.0 mm
03:20 AM 51.6°F10.9°C 47.9°F8.8°C 87% Calm Calm 1.2 mph1.9 kmh 30.29 in1025.7 mb - 0.00 in0.0 mm 0.00 in0.0 mm
03:15 AM 51.7°F10.9°C 48.0°F8.9°C 87% 1.2 mph SSW1.9 kmh SSW 3.5 mph5.6 kmh 30.29 in1025.7 mb - 0.00 in0.0 mm 0.00 in0.0 mm
03:10 AM 51.8°F11.0°C 48.1°F8.9°C 87% 1.2 mph SSW1.9 kmh SSW 2.3 mph3.7 kmh 30.29 in1025.7 mb - 0.00 in0.0 mm 0.00 in0.0 mm
03:00 AM 52.0°F11.1°C 48.3°F9.1°C 87% 1.2 mph SSW1.9 kmh SSW 2.3 mph3.7 kmh 30.29 in1025.7 mb - 0.00 in0.0 mm 0.00 in0.0 mm
02:55 AM 52.1°F11.2°C 48.3°F9.1°C 87% 2.3 mph SSW3.7 kmh SSW 3.5 mph5.6 kmh 30.29 in1025.7 mb - 0.00 in0.0 mm 0.00 in0.0 mm
02:50 AM 52.1°F11.2°C 48.3°F9.1°C 87% 2.3 mph SSW3.7 kmh SSW 3.5 mph5.6 kmh 30.29 in1025.7 mb - 0.00 in0.0 mm 0.00 in0.0 mm
02:45 AM 52.1°F11.2°C 48.4°F9.1°C 87% 1.2 mph SSW1.9 kmh SSW 3.5 mph5.6 kmh 30.29 in1025.7 mb - 0.00 in0.0 mm 0.00 in0.0 mm
02:40 AM 52.2°F11.2°C 48.5°F9.2°C 87% Calm Calm 1.2 mph1.9 kmh 30.29 in1025.7 mb - 0.00 in0.0 mm 0.00 in0.0 mm
02:35 AM 52.4°F11.3°C 48.6°F9.2°C 87% 1.2 mph WSW1.9 kmh WSW 3.5 mph5.6 kmh 30.30 in1026.1 mb - 0.00 in0.0 mm 0.00 in0.0 mm
02:30 AM 52.6°F11.4°C 48.5°F9.2°C 86% Calm Calm 1.2 mph1.9 kmh 30.30 in1026.1 mb - 0.00 in0.0 mm 0.00 in0.0 mm
02:25 AM 52.6°F11.4°C 48.6°F9.2°C 86% 1.2 mph WSW1.9 kmh WSW 2.3 mph3.7 kmh 30.30 in1026.1 mb - 0.00 in0.0 mm 0.00 in0.0 mm
02:20 AM 52.7°F11.5°C 48.6°F9.2°C 86% 1.2 mph W1.9 kmh W 2.3 mph3.7 kmh 30.30 in1026.1 mb - 0.00 in0.0 mm 0.00 in0.0 mm
02:15 AM 52.8°F11.6°C 48.7°F9.3°C 86% 1.2 mph SSW1.9 kmh SSW 3.5 mph5.6 kmh 30.30 in1026.1 mb - 0.00 in0.0 mm 0.00 in0.0 mm
02:10 AM 52.9°F11.6°C 48.9°F9.4°C 86% Calm Calm -- 30.30 in1026.1 mb - 0.00 in0.0 mm 0.00 in0.0 mm
02:00 AM 53.1°F11.7°C 48.8°F9.3°C 85% Calm Calm -- 30.30 in1026.1 mb - 0.00 in0.0 mm 0.00 in0.0 mm
01:55 AM 53.2°F11.8°C 48.8°F9.3°C 85% Calm Calm 1.2 mph1.9 kmh 30.30 in1026.1 mb - 0.00 in0.0 mm 0.00 in0.0 mm
01:50 AM 53.3°F11.8°C 48.9°F9.4°C 85% 2.3 mph SW3.7 kmh SW 3.5 mph5.6 kmh 30.30 in1026.1 mb - 0.00 in0.0 mm 0.00 in0.0 mm
01:45 AM 53.4°F11.9°C 49.0°F9.4°C 85% Calm Calm 2.3 mph3.7 kmh 30.30 in1026.1 mb - 0.00 in0.0 mm 0.00 in0.0 mm
01:40 AM 53.6°F12.0°C 49.2°F9.6°C 85% Calm Calm 2.3 mph3.7 kmh 30.30 in1026.1 mb - 0.00 in0.0 mm 0.00 in0.0 mm
01:35 AM 53.7°F12.1°C 49.3°F9.6°C 85% 1.2 mph SW1.9 kmh SW 1.2 mph1.9 kmh 30.30 in1026.1 mb - 0.00 in0.0 mm 0.00 in0.0 mm
01:30 AM 53.7°F12.1°C 49.3°F9.6°C 85% 3.5 mph SW5.6 kmh SW 3.5 mph5.6 kmh 30.29 in1025.7 mb - 0.00 in0.0 mm 0.00 in0.0 mm
01:25 AM 53.8°F12.1°C 49.4°F9.7°C 85% 3.5 mph SSW5.6 kmh SSW 4.6 mph7.4 kmh 30.29 in1025.7 mb - 0.00 in0.0 mm 0.00 in0.0 mm
01:20 AM 53.9°F12.2°C 49.5°F9.7°C 85% 2.3 mph SW3.7 kmh SW 3.5 mph5.6 kmh 30.29 in1025.7 mb - 0.00 in0.0 mm 0.00 in0.0 mm
01:15 AM 54.0°F12.2°C 49.6°F9.8°C 85% 2.3 mph SSW3.7 kmh SSW 3.5 mph5.6 kmh 30.29 in1025.7 mb - 0.00 in0.0 mm 0.00 in0.0 mm
01:10 AM 54.0°F12.2°C 49.6°F9.8°C 85% 3.5 mph SW5.6 kmh SW 8.1 mph13.0 kmh 30.29 in1025.7 mb - 0.00 in0.0 mm 0.00 in0.0 mm
01:00 AM 54.1°F12.3°C 49.7°F9.8°C 85% 5.8 mph SW9.3 kmh SW 6.9 mph11.1 kmh 30.29 in1025.7 mb - 0.00 in0.0 mm 0.00 in0.0 mm
12:55 AM 54.1°F12.3°C 49.7°F9.8°C 85% 3.5 mph SW5.6 kmh SW 6.9 mph11.1 kmh 30.28 in1025.4 mb - 0.00 in0.0 mm 0.00 in0.0 mm
12:50 AM 54.2°F12.3°C 49.8°F9.9°C 85% 2.3 mph SW3.7 kmh SW 4.6 mph7.4 kmh 30.29 in1025.7 mb - 0.00 in0.0 mm 0.00 in0.0 mm
12:45 AM 54.3°F12.4°C 50.2°F10.1°C 86% 3.5 mph S5.6 kmh S 4.6 mph7.4 kmh 30.29 in1025.7 mb - 0.00 in0.0 mm 0.00 in0.0 mm
12:40 AM 54.3°F12.4°C 50.2°F10.1°C 86% 3.5 mph SSW5.6 kmh SSW 4.6 mph7.4 kmh 30.29 in1025.7 mb - 0.00 in0.0 mm 0.00 in0.0 mm
12:35 AM 54.3°F12.4°C 50.2°F10.1°C 86% 4.6 mph SW7.4 kmh SW 5.8 mph9.3 kmh 30.29 in1025.7 mb - 0.00 in0.0 mm 0.00 in0.0 mm
12:30 AM 54.4°F12.4°C 50.3°F10.2°C 86% 2.3 mph S3.7 kmh S 8.1 mph13.0 kmh 30.29 in1025.7 mb - 0.00 in0.0 mm 0.00 in0.0 mm
12:25 AM 54.4°F12.4°C 50.3°F10.2°C 86% 3.5 mph SW5.6 kmh SW 4.6 mph7.4 kmh 30.29 in1025.7 mb - 0.00 in0.0 mm 0.00 in0.0 mm
12:20 AM 54.4°F12.4°C 50.3°F10.2°C 86% 3.5 mph SSW5.6 kmh SSW 4.6 mph7.4 kmh 30.29 in1025.7 mb - 0.00 in0.0 mm 0.00 in0.0 mm
12:15 AM 54.4°F12.4°C 50.3°F10.2°C 86% 4.6 mph SSW7.4 kmh SSW 3.5 mph5.6 kmh 30.28 in1025.4 mb - 0.00 in0.0 mm 0.00 in0.0 mm
12:10 AM 54.4°F12.4°C 50.0°F10.0°C 85% 4.6 mph SW7.4 kmh SW 8.1 mph13.0 kmh 30.28 in1025.4 mb - 0.00 in0.0 mm 0.00 in0.0 mm
12:00 AM 54.6°F12.6°C 50.1°F10.1°C 85% 3.5 mph SW5.6 kmh SW 4.6 mph7.4 kmh 30.28 in1025.4 mb - 0.00 in0.0 mm 0.00 in0.0 mm